CPA370 KLAX-VHHH
Flight info
| Callsign | CPA370 |
|---|---|
| Flight time | N/A |
| Altitude | 32000 |
| Route | SUMMR2 MCKEY DCT LIBBO DCT BRINY DCT ALCOA DCT 41N130W 48N140W 52N150W/N0489F340 54N160W 54N170W 54N180E/N0498F360 53N170E DCT HUMSA M523 HIXOR/N0493F380 M523 IPGUD/N0484F400 Y800 MUBTO Y889 DAIGO Y88 SWING Y121 LABEL Y50 IGMON A1 AIPOM/N0484F430 A1 ELATO V522 ABBEY |
| Aircraft | B742/H-SDFHIRWXY/L |
Departure
| Time | N/A |
|---|---|
| Airport | Los Angeles International Airport (KLAX) |
Arrival
| Time | 2026-05-07 13:13 |
|---|---|
| Airport | Hong Kong International Airport (VHHH) |
| Time | Latitude | Longitude | Altitude | Speed | Heading |
|---|---|---|---|---|---|
| 2026-05-07 12:37 | 22.31214 | 116.62192 | 39921 ft | 478 kts | 271° |
| 2026-05-07 12:37 | 22.31053 | 116.55007 | 39925 ft | 479 kts | 271° |
| 2026-05-07 12:38 | 22.30973 | 116.51448 | 39587 ft | 484 kts | 271° |
| 2026-05-07 12:38 | 22.30890 | 116.47813 | 39007 ft | 482 kts | 271° |
| 2026-05-07 12:38 | 22.30804 | 116.44215 | 38440 ft | 474 kts | 272° |
| 2026-05-07 12:38 | 22.30720 | 116.40698 | 37910 ft | 464 kts | 272° |
| 2026-05-07 12:39 | 22.30638 | 116.37264 | 37383 ft | 457 kts | 272° |
| 2026-05-07 12:39 | 22.30558 | 116.33852 | 36853 ft | 459 kts | 271° |
| 2026-05-07 12:39 | 22.30478 | 116.30402 | 36325 ft | 465 kts | 271° |
| 2026-05-07 12:39 | 22.30395 | 116.26887 | 35799 ft | 466 kts | 271° |
| 2026-05-07 12:40 | 22.30310 | 116.23418 | 35275 ft | 462 kts | 271° |
| 2026-05-07 12:40 | 22.30224 | 116.19984 | 34750 ft | 456 kts | 271° |
| 2026-05-07 12:40 | 22.30139 | 116.16618 | 34230 ft | 452 kts | 271° |
| 2026-05-07 12:40 | 22.30055 | 116.13254 | 33688 ft | 449 kts | 271° |
| 2026-05-07 12:41 | 22.29971 | 116.09898 | 33100 ft | 448 kts | 271° |
| 2026-05-07 12:41 | 22.29885 | 116.06539 | 32525 ft | 447 kts | 271° |
| 2026-05-07 12:41 | 22.29800 | 116.03193 | 31991 ft | 450 kts | 271° |
| 2026-05-07 12:41 | 22.29713 | 115.99800 | 31455 ft | 453 kts | 271° |
| 2026-05-07 12:42 | 22.29625 | 115.96419 | 30924 ft | 451 kts | 270° |
| 2026-05-07 12:42 | 22.29537 | 115.93073 | 30396 ft | 447 kts | 270° |
| 2026-05-07 12:42 | 22.29448 | 115.89751 | 29868 ft | 442 kts | 270° |
| 2026-05-07 12:42 | 22.29360 | 115.86463 | 29342 ft | 438 kts | 270° |
| 2026-05-07 12:43 | 22.29273 | 115.83173 | 28812 ft | 435 kts | 270° |
| 2026-05-07 12:43 | 22.29187 | 115.79925 | 28299 ft | 432 kts | 270° |
| 2026-05-07 12:43 | 22.29103 | 115.76691 | 27792 ft | 429 kts | 270° |
| 2026-05-07 12:43 | 22.29018 | 115.73486 | 27286 ft | 426 kts | 270° |
| 2026-05-07 12:44 | 22.28935 | 115.70341 | 26785 ft | 422 kts | 270° |
| 2026-05-07 12:44 | 22.28851 | 115.67176 | 26277 ft | 418 kts | 270° |
| 2026-05-07 12:44 | 22.28768 | 115.64068 | 25719 ft | 415 kts | 270° |
| 2026-05-07 12:44 | 22.28685 | 115.60967 | 25094 ft | 413 kts | 270° |
| 2026-05-07 12:45 | 22.28601 | 115.57889 | 24471 ft | 410 kts | 270° |
| 2026-05-07 12:45 | 22.28518 | 115.54834 | 23760 ft | 409 kts | 269° |
| 2026-05-07 12:45 | 22.28435 | 115.51775 | 23043 ft | 408 kts | 269° |
| 2026-05-07 12:45 | 22.28351 | 115.48740 | 22332 ft | 406 kts | 269° |
| 2026-05-07 12:46 | 22.28268 | 115.45744 | 21636 ft | 405 kts | 269° |
| 2026-05-07 12:46 | 22.28183 | 115.42724 | 20934 ft | 403 kts | 269° |
| 2026-05-07 12:46 | 22.28098 | 115.39702 | 20219 ft | 400 kts | 269° |
| 2026-05-07 12:46 | 22.28013 | 115.36750 | 19519 ft | 392 kts | 269° |
| 2026-05-07 12:47 | 22.27928 | 115.33847 | 18816 ft | 385 kts | 268° |
| 2026-05-07 12:47 | 22.27844 | 115.30996 | 18114 ft | 379 kts | 268° |
| 2026-05-07 12:47 | 22.27760 | 115.28175 | 17410 ft | 374 kts | 268° |
| 2026-05-07 12:47 | 22.27675 | 115.25388 | 16720 ft | 369 kts | 268° |
| 2026-05-07 12:48 | 22.27592 | 115.22654 | 16027 ft | 364 kts | 268° |
| 2026-05-07 12:48 | 22.27510 | 115.19974 | 15349 ft | 359 kts | 268° |
| 2026-05-07 12:48 | 22.27427 | 115.17290 | 14768 ft | 357 kts | 268° |
| 2026-05-07 12:48 | 22.27345 | 115.14632 | 14183 ft | 356 kts | 268° |
| 2026-05-07 12:49 | 22.27263 | 115.11982 | 13594 ft | 354 kts | 268° |
| 2026-05-07 12:49 | 22.27180 | 115.09312 | 13000 ft | 353 kts | 268° |
| 2026-05-07 12:49 | 22.27097 | 115.06673 | 12402 ft | 351 kts | 268° |
| 2026-05-07 12:49 | 22.27015 | 115.04069 | 11889 ft | 347 kts | 268° |
| 2026-05-07 12:50 | 22.26934 | 115.01499 | 11525 ft | 340 kts | 268° |
| 2026-05-07 12:50 | 22.26853 | 114.98983 | 11180 ft | 337 kts | 268° |
| 2026-05-07 12:50 | 22.26545 | 114.96469 | 10805 ft | 340 kts | 255° |
| 2026-05-07 12:50 | 22.25596 | 114.94148 | 10406 ft | 335 kts | 238° |
| 2026-05-07 12:51 | 22.24211 | 114.92155 | 10025 ft | 328 kts | 233° |
| 2026-05-07 12:51 | 22.22866 | 114.90185 | 9665 ft | 321 kts | 236° |
| 2026-05-07 12:51 | 22.21658 | 114.88203 | 9307 ft | 315 kts | 238° |
| 2026-05-07 12:51 | 22.20522 | 114.86213 | 9038 ft | 306 kts | 240° |
| 2026-05-07 12:52 | 22.19441 | 114.84267 | 8782 ft | 298 kts | 240° |
| 2026-05-07 12:52 | 22.18388 | 114.82355 | 8422 ft | 294 kts | 240° |
| 2026-05-07 12:52 | 22.17350 | 114.80467 | 8058 ft | 291 kts | 240° |
| 2026-05-07 12:52 | 22.16332 | 114.78616 | 7701 ft | 287 kts | 240° |
| 2026-05-07 12:53 | 22.15320 | 114.76777 | 7339 ft | 284 kts | 240° |
| 2026-05-07 12:53 | 22.14316 | 114.74954 | 6978 ft | 281 kts | 240° |
| 2026-05-07 12:53 | 22.13319 | 114.73144 | 6616 ft | 279 kts | 240° |
| 2026-05-07 12:53 | 22.12335 | 114.71360 | 6272 ft | 277 kts | 240° |
| 2026-05-07 12:54 | 22.11362 | 114.69595 | 6085 ft | 270 kts | 240° |
| 2026-05-07 12:54 | 22.10395 | 114.67842 | 6034 ft | 273 kts | 240° |
| 2026-05-07 12:54 | 22.09412 | 114.66059 | 6021 ft | 276 kts | 240° |
| 2026-05-07 12:54 | 22.08427 | 114.64275 | 6018 ft | 276 kts | 240° |
| 2026-05-07 12:55 | 22.07451 | 114.62508 | 6018 ft | 276 kts | 240° |
| 2026-05-07 12:55 | 22.06464 | 114.60721 | 6016 ft | 277 kts | 240° |
| 2026-05-07 12:55 | 22.05486 | 114.58950 | 6013 ft | 277 kts | 240° |
| 2026-05-07 12:55 | 22.04497 | 114.57160 | 6010 ft | 277 kts | 240° |
| 2026-05-07 12:56 | 22.03506 | 114.55369 | 6007 ft | 276 kts | 240° |
| 2026-05-07 12:56 | 22.02693 | 114.53511 | 6000 ft | 276 kts | 258° |
| 2026-05-07 12:56 | 22.02456 | 114.51444 | 6008 ft | 278 kts | 266° |
| 2026-05-07 12:56 | 22.02328 | 114.49365 | 6004 ft | 277 kts | 266° |
| 2026-05-07 12:57 | 22.02212 | 114.47297 | 6004 ft | 278 kts | 267° |
| 2026-05-07 12:57 | 22.02099 | 114.45209 | 6004 ft | 278 kts | 267° |
| 2026-05-07 12:57 | 22.01991 | 114.43147 | 6004 ft | 278 kts | 267° |
| 2026-05-07 12:57 | 22.01883 | 114.41060 | 5976 ft | 278 kts | 267° |
| 2026-05-07 12:58 | 22.01777 | 114.38973 | 5854 ft | 278 kts | 267° |
| 2026-05-07 12:58 | 22.01674 | 114.36915 | 5730 ft | 276 kts | 267° |
| 2026-05-07 12:58 | 22.01572 | 114.34866 | 5604 ft | 276 kts | 266° |
| 2026-05-07 12:58 | 22.01636 | 114.32810 | 5433 ft | 276 kts | 284° |
| 2026-05-07 12:59 | 22.02397 | 114.30931 | 5283 ft | 274 kts | 298° |
| 2026-05-07 12:59 | 22.03221 | 114.29113 | 4983 ft | 268 kts | 288° |
| 2026-05-07 12:59 | 22.03523 | 114.27161 | 4673 ft | 256 kts | 277° |
| 2026-05-07 12:59 | 22.03766 | 114.25264 | 4236 ft | 261 kts | 278° |
| 2026-05-07 13:00 | 22.04088 | 114.23292 | 3421 ft | 274 kts | 280° |
| 2026-05-07 13:00 | 22.04408 | 114.21281 | 2840 ft | 273 kts | 276° |
| 2026-05-07 13:00 | 22.04633 | 114.19279 | 2256 ft | 270 kts | 276° |
| 2026-05-07 13:00 | 22.04873 | 114.17301 | 1905 ft | 252 kts | 277° |
| 2026-05-07 13:01 | 22.05104 | 114.15530 | 2214 ft | 248 kts | 277° |
| 2026-05-07 13:01 | 22.05350 | 114.13692 | 2574 ft | 247 kts | 277° |
| 2026-05-07 13:01 | 22.05603 | 114.11824 | 2869 ft | 250 kts | 277° |
| 2026-05-07 13:01 | 22.05856 | 114.09978 | 2972 ft | 252 kts | 277° |
| 2026-05-07 13:02 | 22.06111 | 114.08108 | 2998 ft | 251 kts | 277° |
| 2026-05-07 13:02 | 22.06367 | 114.06238 | 3002 ft | 250 kts | 277° |
| 2026-05-07 13:02 | 22.06620 | 114.04385 | 3006 ft | 251 kts | 277° |
| 2026-05-07 13:02 | 22.06874 | 114.02520 | 3006 ft | 251 kts | 277° |
| 2026-05-07 13:03 | 22.07126 | 114.00666 | 3004 ft | 250 kts | 277° |
| 2026-05-07 13:03 | 22.07378 | 113.98814 | 3002 ft | 250 kts | 277° |
| 2026-05-07 13:03 | 22.07634 | 113.96935 | 3017 ft | 254 kts | 277° |
| 2026-05-07 13:03 | 22.07888 | 113.95065 | 3010 ft | 249 kts | 277° |
| 2026-05-07 13:04 | 22.08136 | 113.93233 | 3008 ft | 249 kts | 277° |
| 2026-05-07 13:04 | 22.08384 | 113.91404 | 3008 ft | 249 kts | 277° |
| 2026-05-07 13:04 | 22.08635 | 113.89552 | 3007 ft | 250 kts | 277° |
| 2026-05-07 13:04 | 22.08886 | 113.87689 | 3005 ft | 249 kts | 277° |
| 2026-05-07 13:05 | 22.09130 | 113.85891 | 3003 ft | 249 kts | 277° |
| 2026-05-07 13:05 | 22.09380 | 113.84036 | 3009 ft | 249 kts | 277° |
| 2026-05-07 13:05 | 22.09630 | 113.82187 | 3011 ft | 249 kts | 277° |
| 2026-05-07 13:05 | 22.09880 | 113.80338 | 3010 ft | 249 kts | 277° |
| 2026-05-07 13:06 | 22.10165 | 113.78497 | 3009 ft | 249 kts | 283° |
| 2026-05-07 13:06 | 22.10953 | 113.76846 | 3009 ft | 252 kts | 314° |
| 2026-05-07 13:06 | 22.12422 | 113.75781 | 3013 ft | 253 kts | 334° |
| 2026-05-07 13:06 | 22.14005 | 113.74949 | 3009 ft | 252 kts | 333° |
| 2026-05-07 13:07 | 22.15571 | 113.74111 | 3009 ft | 252 kts | 334° |
| 2026-05-07 13:07 | 22.17164 | 113.73292 | 3008 ft | 251 kts | 335° |
| 2026-05-07 13:07 | 22.18746 | 113.72494 | 3009 ft | 252 kts | 335° |
| 2026-05-07 13:07 | 22.20351 | 113.71692 | 2942 ft | 255 kts | 335° |
| 2026-05-07 13:08 | 22.22025 | 113.71084 | 2696 ft | 254 kts | 354° |
| 2026-05-07 13:08 | 22.23754 | 113.71368 | 2397 ft | 247 kts | 28° |
| 2026-05-07 13:08 | 22.25182 | 113.72376 | 2145 ft | 244 kts | 39° |
| 2026-05-07 13:08 | 22.26479 | 113.73540 | 1903 ft | 241 kts | 47° |
| 2026-05-07 13:09 | 22.27465 | 113.74908 | 1641 ft | 223 kts | 60° |
| 2026-05-07 13:09 | 22.28273 | 113.76221 | 1537 ft | 197 kts | 67° |
| 2026-05-07 13:09 | 22.28683 | 113.77659 | 1543 ft | 199 kts | 72° |
| 2026-05-07 13:09 | 22.29160 | 113.79018 | 1524 ft | 192 kts | 72° |
| 2026-05-07 13:10 | 22.29584 | 113.80278 | 1497 ft | 167 kts | 73° |
| 2026-05-07 13:10 | 22.29952 | 113.81395 | 1332 ft | 153 kts | 73° |
| 2026-05-07 13:10 | 22.30292 | 113.82435 | 1142 ft | 143 kts | 74° |
| 2026-05-07 13:10 | 22.30609 | 113.83417 | 936 ft | 136 kts | 74° |
| 2026-05-07 13:11 | 22.30918 | 113.84373 | 760 ft | 134 kts | 74° |
| 2026-05-07 13:11 | 22.31222 | 113.85313 | 606 ft | 133 kts | 74° |
| 2026-05-07 13:11 | 22.31525 | 113.86266 | 454 ft | 134 kts | 74° |
| 2026-05-07 13:11 | 22.31828 | 113.87193 | 269 ft | 130 kts | 73° |
| 2026-05-07 13:12 | 22.32129 | 113.88120 | 90 ft | 132 kts | 73° |
| 2026-05-07 13:12 | 22.32414 | 113.89017 | 38 ft | 115 kts | 71° |
| 2026-05-07 13:12 | 22.32616 | 113.89647 | 38 ft | 62 kts | 71° |
| 2026-05-07 13:12 | 22.32742 | 113.90041 | 37 ft | 54 kts | 71° |
| 2026-05-07 13:13 | 22.32818 | 113.90317 | 37 ft | 28 kts | 81° |
| 2026-05-07 13:13 | 22.32809 | 113.90492 | 37 ft | 13 kts | 102° |
| 2026-05-07 13:13 | 22.32790 | 113.90551 | 37 ft | 7 kts | 129° |
| 2026-05-07 13:13 | 22.32752 | 113.90564 | 37 ft | 5 kts | 184° |
| 2026-05-07 13:14 | 22.32717 | 113.90562 | 37 ft | 5 kts | 182° |
| 2026-05-07 13:14 | 22.32681 | 113.90560 | 37 ft | 5 kts | 184° |
| 2026-05-07 13:14 | 22.32641 | 113.90543 | 37 ft | 7 kts | 220° |
| 2026-05-07 13:14 | 22.32614 | 113.90485 | 37 ft | 9 kts | 252° |
| 2026-05-07 13:15 | 22.32583 | 113.90408 | 37 ft | 8 kts | 219° |
| 2026-05-07 13:15 | 22.32525 | 113.90408 | 37 ft | 10 kts | 159° |
| 2026-05-07 13:15 | 22.32446 | 113.90438 | 37 ft | 14 kts | 161° |
| 2026-05-07 13:15 | 22.32342 | 113.90479 | 37 ft | 17 kts | 162° |
| 2026-05-07 13:16 | 22.32214 | 113.90524 | 37 ft | 21 kts | 160° |
| 2026-05-07 13:16 | 22.32061 | 113.90581 | 38 ft | 24 kts | 160° |
| 2026-05-07 13:16 | 22.31893 | 113.90645 | 38 ft | 26 kts | 162° |
| 2026-05-07 13:16 | 22.31720 | 113.90704 | 38 ft | 23 kts | 158° |
| 2026-05-07 13:17 | 22.31610 | 113.90747 | 38 ft | 4 kts | 163° |
| 2026-05-07 13:17 | 22.31576 | 113.90756 | 38 ft | 0 kts | 167° |
| 2026-05-07 13:17 | 22.31569 | 113.90758 | 38 ft | 2 kts | 167° |
| 2026-05-07 13:17 | 22.31545 | 113.90765 | 38 ft | 5 kts | 158° |
| 2026-05-07 13:18 | 22.31509 | 113.90796 | 38 ft | 7 kts | 120° |
| 2026-05-07 13:18 | 22.31483 | 113.90856 | 38 ft | 9 kts | 151° |
| 2026-05-07 13:18 | 22.31424 | 113.90820 | 38 ft | 14 kts | 239° |
| 2026-05-07 13:18 | 22.31358 | 113.90716 | 38 ft | 19 kts | 232° |
| 2026-05-07 13:19 | 22.31255 | 113.90604 | 38 ft | 19 kts | 223° |
| 2026-05-07 13:19 | 22.31144 | 113.90503 | 38 ft | 12 kts | 214° |
| 2026-05-07 13:19 | 22.31070 | 113.90502 | 38 ft | 11 kts | 188° |
| 2026-05-07 13:19 | 22.31016 | 113.90428 | 38 ft | 10 kts | 227° |
| 2026-05-07 13:20 | 22.30948 | 113.90433 | 38 ft | 10 kts | 163° |
| 2026-05-07 13:20 | 22.30924 | 113.90466 | 37 ft | 2 kts | 71° |
| 2026-05-07 13:20 | 22.30938 | 113.90497 | 38 ft | 7 kts | 66° |
| 2026-05-07 13:20 | 22.30953 | 113.90544 | 38 ft | 0 kts | 73° |